Time;durP1;ratioP1;P1;durP2;ratioP2;P2;SDS_P1;SDS_P2;PMS_P1;PMS_P2;Temp;Humidity;BMP_temperature;BMP_pressure;BME280_temperature;BME280_humidity;BME280_pressure;Samples;Min_cycle;Max_cycle;Signal;HPM_P1;HPM_P2
2022/05/04 00:01:38;;;;;;;4.10;2.90;;;;;;;12.93;98.53;96139.22;5052595;28;20294;-78
2022/05/04 00:04:06;;;;;;;3.03;2.73;;;;;;;12.96;99.15;96146.06;5046305;28;20216;-78
2022/05/04 00:06:33;;;;;;;6.10;2.90;;;;;;;13.01;99.30;96148.84;5042852;28;20198;-79
2022/05/04 00:09:00;;;;;;;5.00;2.53;;;;;;;13.04;98.83;96142.91;5042586;28;20201;-79
2022/05/04 00:11:27;;;;;;;3.10;2.60;;;;;;;13.04;99.36;96156.47;5054793;28;20293;-79
2022/05/04 00:13:55;;;;;;;3.37;2.83;;;;;;;13.01;99.56;96151.56;5062615;28;20213;-79
2022/05/04 00:16:23;;;;;;;2.63;2.43;;;;;;;13.03;98.88;96154.81;5046031;28;20197;-79
2022/05/04 00:21:39;;;;;;;3.63;2.53;;;;;;;12.89;100.00;96144.34;5235654;22;20262;-84
2022/05/04 00:24:07;;;;;;;2.77;2.40;;;;;;;12.96;100.00;96156.91;4997446;28;20211;-85
2022/05/04 00:26:34;;;;;;;3.13;2.83;;;;;;;12.99;99.53;96149.09;5003775;28;20291;-84
2022/05/04 00:29:03;;;;;;;2.70;2.50;;;;;;;12.95;99.65;96139.81;5002583;28;20242;-84
2022/05/04 00:31:30;;;;;;;8.43;3.03;;;;;;;12.96;100.00;96152.28;4994298;28;20306;-84
2022/05/04 00:33:57;;;;;;;2.77;2.50;;;;;;;12.94;100.00;96145.47;5014407;28;20211;-82
2022/05/04 00:36:24;;;;;;;2.93;2.30;;;;;;;12.96;100.00;96155.00;5015006;28;20381;-84
2022/05/04 00:38:51;;;;;;;2.77;2.50;;;;;;;12.90;100.00;96161.44;5014675;28;20207;-84
2022/05/04 00:41:19;;;;;;;3.27;2.57;;;;;;;12.85;100.00;96158.63;5016346;28;20304;-84
2022/05/04 00:43:51;;;;;;;2.60;2.30;;;;;;;12.80;100.00;96145.84;5003964;28;20298;-85
2022/05/04 00:46:21;;;;;;;3.63;2.50;;;;;;;12.76;100.00;96152.81;5007526;28;20228;-84
2022/05/04 00:48:48;;;;;;;3.63;2.17;;;;;;;12.77;100.00;96159.88;5000527;28;20260;-85
2022/05/04 00:51:16;;;;;;;3.70;2.73;;;;;;;12.64;100.00;96156.72;5005573;28;20235;-84
2022/05/04 00:53:44;;;;;;;3.07;2.70;;;;;;;12.45;100.00;96153.44;5005323;28;20572;-85
2022/05/04 00:56:12;;;;;;;2.57;2.37;;;;;;;12.25;100.00;96155.81;4999768;28;20293;-85
2022/05/04 00:58:57;;;;;;;3.30;2.90;;;;;;;12.15;100.00;96159.16;5002320;28;20211;-83
2022/05/04 01:01:28;;;;;;;6.03;2.70;;;;;;;12.16;100.00;96160.00;5003410;28;20246;-81
2022/05/04 01:03:55;;;;;;;3.10;2.57;;;;;;;12.11;100.00;96163.41;5006609;28;20207;-84
2022/05/04 01:06:23;;;;;;;2.60;2.33;;;;;;;12.20;100.00;96164.66;5004882;28;20220;-83
2022/05/04 01:08:51;;;;;;;3.40;2.40;;;;;;;12.22;100.00;96167.13;5005066;28;20252;-84
2022/05/04 01:11:19;;;;;;;3.80;3.17;;;;;;;12.13;100.00;96167.53;5011926;28;20305;-84
2022/05/04 01:13:59;;;;;;;4.70;2.47;;;;;;;12.12;100.00;96170.47;5004667;28;20301;-85
2022/05/04 01:16:28;;;;;;;3.33;2.80;;;;;;;12.09;100.00;96171.78;5005374;28;20214;-82
2022/05/04 01:18:55;;;;;;;2.93;2.60;;;;;;;12.13;100.00;96178.34;5017075;28;20218;-85
2022/05/04 01:21:23;;;;;;;2.70;2.40;;;;;;;12.09;100.00;96170.94;5001165;28;20257;-84
2022/05/04 01:23:53;;;;;;;3.40;2.77;;;;;;;12.14;100.00;96168.34;5022402;28;20212;-84
2022/05/04 01:26:20;;;;;;;2.80;2.50;;;;;;;12.12;100.00;96174.00;4999575;28;20230;-83
2022/05/04 01:28:47;;;;;;;2.73;2.40;;;;;;;12.07;100.00;96165.81;4999342;28;20726;-84
2022/05/04 01:31:15;;;;;;;5.53;3.00;;;;;;;12.02;100.00;96170.28;5012983;28;20207;-83
2022/05/04 01:33:42;;;;;;;4.27;2.73;;;;;;;11.88;100.00;96169.78;4996438;28;20231;-85
2022/05/04 01:36:09;;;;;;;2.87;2.50;;;;;;;11.79;100.00;96165.81;5003566;28;20210;-82
2022/05/04 01:38:37;;;;;;;3.13;2.83;;;;;;;11.74;100.00;96162.97;5014219;28;20266;-85
2022/05/04 01:42:02;;;;;;;3.03;2.73;;;;;;;11.66;100.00;96171.47;5021073;28;20226;-85
2022/05/04 01:43:53;;;;;;;3.47;2.77;;;;;;;11.63;100.00;96171.97;5005397;28;20206;-84
2022/05/04 01:46:21;;;;;;;2.87;2.67;;;;;;;11.56;100.00;96171.31;5000452;28;20230;-84
2022/05/04 01:48:49;;;;;;;2.90;2.67;;;;;;;11.58;100.00;96177.25;5008435;28;20206;-85
2022/05/04 01:51:16;;;;;;;2.80;2.50;;;;;;;11.63;100.00;96180.09;5008474;28;20202;-84
2022/05/04 01:53:45;;;;;;;3.00;2.70;;;;;;;11.57;100.00;96172.94;5008485;28;20207;-82
2022/05/04 01:56:13;;;;;;;4.20;2.67;;;;;;;11.51;100.00;96173.88;5004322;28;20230;-84
2022/05/04 01:58:41;;;;;;;3.50;2.50;;;;;;;11.51;100.00;96184.72;5021445;28;20272;-84
2022/05/04 02:01:09;;;;;;;3.87;2.83;;;;;;;11.50;100.00;96183.88;5003020;28;20218;-84
2022/05/04 02:03:38;;;;;;;3.17;2.57;;;;;;;11.55;100.00;96175.06;5018538;28;20258;-85
2022/05/04 02:06:05;;;;;;;3.23;2.50;;;;;;;11.57;100.00;96181.84;4996727;28;20326;-84
2022/05/04 02:08:33;;;;;;;3.23;2.80;;;;;;;11.57;100.00;96178.34;4996180;28;20250;-85
2022/05/04 02:11:00;;;;;;;2.67;2.43;;;;;;;11.60;100.00;96185.97;5004341;28;20266;-85
2022/05/04 02:13:28;;;;;;;4.77;2.80;;;;;;;11.59;100.00;96181.63;5013336;28;20230;-84
2022/05/04 02:15:55;;;;;;;4.60;2.93;;;;;;;11.56;100.00;96179.41;5028728;28;20214;-84
2022/05/04 02:18:22;;;;;;;2.37;2.17;;;;;;;11.51;100.00;96184.72;5015364;28;20284;-83
2022/05/04 02:20:50;;;;;;;2.73;2.37;;;;;;;11.42;100.00;96178.03;5011060;28;20252;-84
2022/05/04 02:23:17;;;;;;;3.30;2.57;;;;;;;11.36;100.00;96183.34;5015992;28;20203;-84
2022/05/04 02:25:44;;;;;;;4.87;2.67;;;;;;;11.29;100.00;96179.97;5005147;28;20243;-83
2022/05/04 02:28:11;;;;;;;3.60;2.43;;;;;;;11.31;100.00;96180.50;5013068;28;20206;-85
2022/05/04 02:30:39;;;;;;;2.73;2.53;;;;;;;11.31;100.00;96190.53;5005677;28;20215;-83
2022/05/04 02:33:06;;;;;;;3.97;2.90;;;;;;;11.29;100.00;96188.06;5011062;28;20227;-84
2022/05/04 02:38:19;;;;;;;3.70;2.43;;;;;;;11.26;100.00;96193.94;4998210;28;20280;-84
2022/05/04 02:40:46;;;;;;;3.10;2.80;;;;;;;11.19;100.00;96193.25;5000997;28;20200;-85
2022/05/04 02:43:13;;;;;;;3.63;2.67;;;;;;;11.18;100.00;96185.38;5000649;28;20210;-84
2022/05/04 02:45:42;;;;;;;3.23;2.90;;;;;;;11.19;100.00;96192.44;4999302;28;20224;-83
2022/05/04 02:48:09;;;;;;;3.00;2.60;;;;;;;11.15;100.00;96191.25;5001830;28;20212;-84
2022/05/04 02:50:37;;;;;;;3.13;2.37;;;;;;;11.06;100.00;96196.19;5002660;28;20204;-83
2022/05/04 02:53:05;;;;;;;3.87;2.80;;;;;;;10.99;100.00;96198.19;5003498;28;20267;-86
2022/05/04 02:55:32;;;;;;;4.57;2.63;;;;;;;10.97;100.00;96200.34;5021677;28;20206;-84
2022/05/04 02:58:00;;;;;;;3.40;2.67;;;;;;;10.88;100.00;96196.34;5023543;28;20212;-85
2022/05/04 03:00:28;;;;;;;4.20;2.43;;;;;;;10.86;100.00;96201.16;5009725;28;20293;-83
2022/05/04 03:02:56;;;;;;;3.57;3.10;;;;;;;10.78;100.00;96190.72;5009255;28;20207;-84
2022/05/04 03:05:24;;;;;;;5.00;2.80;;;;;;;10.80;100.00;96185.91;5015162;28;20223;-85
2022/05/04 03:07:52;;;;;;;2.97;2.73;;;;;;;10.90;100.00;96191.50;5004240;28;20233;-85
2022/05/04 03:10:19;;;;;;;3.23;2.60;;;;;;;10.94;100.00;96190.00;5001016;28;20207;-84
2022/05/04 03:12:46;;;;;;;3.80;2.80;;;;;;;10.96;100.00;96194.13;4997155;28;20206;-85
2022/05/04 03:15:14;;;;;;;3.60;2.50;;;;;;;10.88;100.00;96188.25;5002779;28;20241;-85
2022/05/04 03:17:41;;;;;;;3.70;3.00;;;;;;;10.74;100.00;96190.34;5004758;28;20214;-84
2022/05/04 03:20:12;;;;;;;3.10;2.77;;;;;;;10.74;100.00;96194.91;4993907;28;20223;-83
2022/05/04 03:22:39;;;;;;;3.10;2.40;;;;;;;10.61;100.00;96191.41;4994422;28;20242;-84
2022/05/04 03:25:08;;;;;;;2.80;2.47;;;;;;;10.54;100.00;96198.00;5012373;28;20282;-84
2022/05/04 03:27:35;;;;;;;3.33;2.73;;;;;;;10.46;100.00;96191.03;5015761;28;20303;-85
2022/05/04 03:30:02;;;;;;;3.87;2.90;;;;;;;10.28;100.00;96196.53;5016460;28;20227;-85
2022/05/04 03:32:30;;;;;;;3.43;3.00;;;;;;;10.16;100.00;96192.94;5017477;28;20294;-84
2022/05/04 03:34:57;;;;;;;3.47;3.13;;;;;;;10.05;100.00;96197.25;4995289;28;20207;-84
2022/05/04 03:37:25;;;;;;;6.13;3.10;;;;;;;10.07;100.00;96205.13;5017242;28;20214;-84
2022/05/04 03:39:53;;;;;;;3.20;2.90;;;;;;;10.11;100.00;96206.31;5016145;28;20207;-84
2022/05/04 03:42:20;;;;;;;3.60;2.80;;;;;;;10.16;100.00;96209.13;4997258;28;20207;-85
2022/05/04 03:44:47;;;;;;;3.27;2.97;;;;;;;10.10;100.00;96200.09;5015489;28;20412;-84
2022/05/04 03:47:14;;;;;;;4.33;3.10;;;;;;;10.09;100.00;96194.94;5024990;28;20254;-84
2022/05/04 03:49:41;;;;;;;4.33;3.00;;;;;;;10.17;100.00;96202.69;5010742;28;20288;-85
2022/05/04 03:52:09;;;;;;;3.23;2.70;;;;;;;10.24;100.00;96211.53;5004233;28;20237;-83
2022/05/04 03:54:38;;;;;;;3.53;2.90;;;;;;;10.32;100.00;96205.81;5020764;28;20191;-84
2022/05/04 03:57:06;;;;;;;4.03;2.87;;;;;;;10.37;100.00;96205.94;5008510;28;20199;-82
2022/05/04 03:59:33;;;;;;;3.20;2.67;;;;;;;10.45;100.00;96208.31;5005405;28;20210;-85
2022/05/04 04:02:00;;;;;;;5.27;2.87;;;;;;;10.50;100.00;96211.13;5000349;28;20207;-85
2022/05/04 04:04:27;;;;;;;4.57;3.13;;;;;;;10.41;100.00;96209.00;5012221;28;20199;-82
2022/05/04 04:06:55;;;;;;;4.63;2.80;;;;;;;10.35;100.00;96210.75;5008041;28;20242;-83
2022/05/04 04:09:22;;;;;;;5.37;2.83;;;;;;;10.45;100.00;96213.69;5002184;28;20199;-85
2022/05/04 04:11:50;;;;;;;2.87;2.57;;;;;;;10.51;100.00;96211.94;5007073;28;20222;-85
2022/05/04 04:14:17;;;;;;;3.77;2.80;;;;;;;10.61;100.00;96210.31;4998607;28;20235;-85
2022/05/04 04:16:44;;;;;;;4.37;2.73;;;;;;;10.65;100.00;96207.13;5010672;28;20202;-84
2022/05/04 04:19:12;;;;;;;3.60;2.80;;;;;;;10.80;100.00;96213.69;5006389;28;20203;-85
2022/05/04 04:21:53;;;;;;;3.23;2.93;;;;;;;10.85;100.00;96216.53;5000099;28;20246;-85
2022/05/04 04:24:22;;;;;;;6.13;3.07;;;;;;;10.83;100.00;96217.81;5006396;28;20226;-84
2022/05/04 04:26:51;;;;;;;3.20;2.90;;;;;;;10.68;100.00;96218.28;5002892;28;20220;-84
2022/05/04 04:29:18;;;;;;;5.37;3.00;;;;;;;10.69;100.00;96219.94;5001788;28;20217;-84
2022/05/04 04:31:45;;;;;;;6.40;2.87;;;;;;;10.69;100.00;96214.53;4995817;28;20325;-85
2022/05/04 04:34:13;;;;;;;5.90;2.90;;;;;;;10.72;100.00;96214.06;5008055;28;20370;-87
2022/05/04 04:36:40;;;;;;;3.50;2.43;;;;;;;10.78;100.00;96209.63;5004654;28;20206;-84
2022/05/04 04:39:08;;;;;;;3.83;2.30;;;;;;;10.90;100.00;96223.94;5010540;28;20207;-85
2022/05/04 04:41:35;;;;;;;5.33;2.77;;;;;;;10.90;100.00;96223.94;5003469;28;20261;-87
2022/05/04 04:44:03;;;;;;;3.60;2.80;;;;;;;10.83;100.00;96226.75;5023050;28;20299;-87
2022/05/04 04:46:30;;;;;;;5.37;2.77;;;;;;;10.89;100.00;96224.97;5031836;28;20235;-86
2022/05/04 04:48:58;;;;;;;3.37;2.80;;;;;;;10.96;100.00;96225.72;5007435;28;20243;-85
2022/05/04 04:51:25;;;;;;;3.33;2.80;;;;;;;10.97;100.00;96219.25;5009459;28;20217;-86
2022/05/04 04:53:52;;;;;;;3.93;2.80;;;;;;;10.95;100.00;96214.06;5029998;28;20214;-85
2022/05/04 04:56:19;;;;;;;3.13;2.50;;;;;;;10.98;100.00;96207.34;5000530;28;20245;-87
2022/05/04 04:58:46;;;;;;;2.90;2.60;;;;;;;10.92;100.00;96219.94;5002406;28;20211;-85
2022/05/04 05:01:15;;;;;;;4.07;3.17;;;;;;;10.99;100.00;96227.91;4998382;28;20196;-87
2022/05/04 05:03:43;;;;;;;3.80;2.90;;;;;;;11.07;100.00;96216.75;5006329;28;20214;-86
2022/05/04 05:06:12;;;;;;;6.03;3.20;;;;;;;11.19;100.00;96227.56;5009343;28;20223;-85
2022/05/04 05:08:41;;;;;;;3.93;2.60;;;;;;;11.30;100.00;96226.72;5022890;28;20199;-86
2022/05/04 05:11:08;;;;;;;5.00;3.13;;;;;;;11.36;100.00;96228.47;5008595;28;20297;-87
2022/05/04 05:16:06;;;;;;;3.17;2.77;;;;;;;11.36;100.00;96229.28;5009456;28;20222;-86
2022/05/04 05:16:24;;;;;;;3.10;2.50;;;;;;;11.44;100.00;96227.28;5024939;28;20227;-86
2022/05/04 05:18:51;;;;;;;4.80;2.70;;;;;;;11.52;100.00;96216.91;5024522;28;20257;-86
2022/05/04 05:21:18;;;;;;;5.83;3.13;;;;;;;11.61;100.00;96217.38;5011321;28;20249;-87
2022/05/04 05:23:46;;;;;;;2.73;2.47;;;;;;;11.65;100.00;96213.94;5012024;28;20228;-86
2022/05/04 05:26:13;;;;;;;2.97;2.47;;;;;;;11.72;100.00;96220.03;4999227;28;20295;-86
2022/05/04 05:28:41;;;;;;;4.80;2.80;;;;;;;11.70;100.00;96211.34;4997671;28;20199;-86
2022/05/04 05:31:08;;;;;;;4.60;3.10;;;;;;;11.79;100.00;96219.09;5016906;28;20199;-86
2022/05/04 05:33:37;;;;;;;4.30;2.43;;;;;;;11.79;99.61;96217.22;5023805;28;20210;-86
2022/05/04 05:36:05;;;;;;;6.17;3.00;;;;;;;11.72;100.00;96213.81;5008271;28;20209;-85
2022/05/04 05:38:32;;;;;;;4.07;2.73;;;;;;;11.72;100.00;96208.41;5007201;28;20288;-85
2022/05/04 05:41:01;;;;;;;4.50;2.80;;;;;;;11.78;99.38;96212.03;5011038;28;20222;-85
2022/05/04 05:43:28;;;;;;;3.07;2.73;;;;;;;11.80;98.70;96205.34;5029833;28;20264;-86
2022/05/04 05:45:55;;;;;;;4.93;2.70;;;;;;;11.89;99.00;96213.91;5017287;28;20214;-84
2022/05/04 05:48:22;;;;;;;6.03;4.40;;;;;;;11.93;98.89;96205.03;5007179;28;20207;-85
2022/05/04 05:50:51;;;;;;;6.40;2.57;;;;;;;12.01;97.33;96204.66;5002222;28;20222;-85
2022/05/04 05:53:19;;;;;;;3.13;2.67;;;;;;;12.12;96.65;96213.78;5025456;28;20283;-86
2022/05/04 05:55:46;;;;;;;2.77;2.57;;;;;;;12.25;96.70;96213.47;5004199;28;20204;-85
2022/05/04 05:58:13;;;;;;;5.60;2.60;;;;;;;12.41;96.75;96211.88;5005228;28;20291;-86
2022/05/04 06:00:40;;;;;;;4.13;2.83;;;;;;;12.51;94.23;96210.13;5018437;28;20359;-85
2022/05/04 06:03:07;;;;;;;2.73;2.30;;;;;;;12.53;92.82;96215.31;5003301;28;20541;-86
2022/05/04 06:05:35;;;;;;;3.67;2.20;;;;;;;12.61;94.01;96211.38;4999609;28;20204;-84
2022/05/04 06:08:04;;;;;;;2.53;2.20;;;;;;;12.68;94.42;96210.13;5020363;28;20305;-86
2022/05/04 06:10:31;;;;;;;4.63;2.60;;;;;;;12.71;91.25;96219.66;5011553;28;20210;-86
2022/05/04 06:12:59;;;;;;;6.77;2.60;;;;;;;12.75;93.21;96213.50;5003011;28;20207;-86
2022/05/04 06:15:26;;;;;;;2.87;2.63;;;;;;;12.76;93.94;96211.63;5029720;28;20214;-85
2022/05/04 06:17:53;;;;;;;3.80;2.67;;;;;;;12.81;94.75;96217.94;4997157;28;20202;-86
2022/05/04 06:20:22;;;;;;;2.93;2.60;;;;;;;12.86;96.61;96220.72;5025457;28;20308;-86
2022/05/04 06:22:49;;;;;;;2.87;2.63;;;;;;;12.80;96.78;96210.06;5014459;28;20235;-86
2022/05/04 06:25:17;;;;;;;2.97;2.63;;;;;;;12.89;97.93;96220.22;5015024;28;20298;-86
2022/05/04 06:27:45;;;;;;;4.80;2.90;;;;;;;12.91;100.00;96216.44;5025196;28;20218;-87
2022/05/04 06:35:43;;;;;;;4.97;2.53;;;;;;;13.06;99.68;96224.81;4996972;28;20289;-86
2022/05/04 06:38:10;;;;;;;5.47;3.20;;;;;;;13.14;98.02;96217.09;5026381;28;20201;-86
2022/05/04 06:40:38;;;;;;;6.17;3.30;;;;;;;13.14;95.25;96211.69;4995803;28;20207;-85
2022/05/04 06:43:06;;;;;;;6.00;3.40;;;;;;;13.18;93.62;96220.16;5008401;28;20214;-86
2022/05/04 06:45:33;;;;;;;3.83;3.43;;;;;;;13.22;94.28;96216.66;5001448;28;20257;-86
2022/05/04 06:48:02;;;;;;;8.83;3.47;;;;;;;13.31;94.77;96222.50;5011975;28;20343;-84
2022/05/04 06:50:30;;;;;;;6.43;3.67;;;;;;;13.33;93.90;96217.63;5005786;28;20207;-86
2022/05/04 06:52:57;;;;;;;4.47;3.10;;;;;;;13.36;93.12;96224.44;5009332;28;20253;-85
2022/05/04 06:55:24;;;;;;;4.47;3.10;;;;;;;13.33;92.76;96217.63;4996527;28;20199;-85
2022/05/04 06:57:52;;;;;;;4.40;3.30;;;;;;;13.36;92.32;96216.28;5005612;28;20301;-86
2022/05/04 07:00:20;;;;;;;6.33;3.80;;;;;;;13.42;91.06;96210.72;5020523;28;20200;-85
2022/05/04 07:02:47;;;;;;;4.47;2.80;;;;;;;13.48;89.32;96211.59;5025433;28;20294;-86
2022/05/04 07:05:15;;;;;;;4.00;2.83;;;;;;;13.53;89.52;96214.34;5001754;28;20191;-85
2022/05/04 07:07:42;;;;;;;7.63;3.43;;;;;;;13.62;89.36;96208.25;5007934;28;20310;-83
2022/05/04 07:10:10;;;;;;;6.23;3.50;;;;;;;13.68;88.77;96200.19;5012531;28;20203;-86
2022/05/04 07:12:38;;;;;;;4.03;3.00;;;;;;;13.71;93.21;96210.50;5004208;28;20229;-85
2022/05/04 07:15:07;;;;;;;6.00;3.10;;;;;;;13.65;95.07;96220.50;5009281;28;20307;-82
2022/05/04 07:17:34;;;;;;;4.20;2.80;;;;;;;13.60;94.75;96209.59;5000836;28;20241;-85
2022/05/04 07:20:01;;;;;;;3.30;3.00;;;;;;;13.67;92.09;96214.81;5017240;28;20211;-86
2022/05/04 07:22:29;;;;;;;8.73;4.97;;;;;;;13.91;88.84;96205.31;5010794;28;20233;-85
2022/05/04 07:24:56;;;;;;;6.50;4.60;;;;;;;14.56;85.77;96217.94;5007336;28;20202;-84
2022/05/04 07:27:23;;;;;;;10.83;5.00;;;;;;;15.17;82.68;96212.97;4997982;28;20216;-85
2022/05/04 07:29:50;;;;;;;8.17;4.03;;;;;;;15.72;76.93;96205.16;5022642;28;20203;-85
2022/05/04 07:32:19;;;;;;;9.63;3.60;;;;;;;16.05;76.26;96208.53;5008106;28;20199;-86
2022/05/04 07:34:46;;;;;;;6.53;3.93;;;;;;;15.89;75.20;96205.75;5024115;28;20210;-86
2022/05/04 07:37:14;;;;;;;4.57;3.60;;;;;;;16.03;74.60;96199.81;5006451;28;20249;-83
2022/05/04 07:42:26;;;;;;;3.90;3.47;;;;;;;16.98;71.46;96201.03;5018636;28;20333;-92
2022/05/04 07:44:58;;;;;;;6.37;3.57;;;;;;;17.26;70.61;96197.72;5001217;28;20207;-90
2022/05/04 07:47:29;;;;;;;6.30;3.47;;;;;;;17.11;68.56;96199.63;4995289;28;20219;-91
2022/05/04 07:49:56;;;;;;;7.27;3.70;;;;;;;16.96;71.00;96208.66;5007062;28;20239;-91
2022/05/04 07:52:24;;;;;;;6.40;3.50;;;;;;;17.10;67.10;96193.34;5019546;28;20302;-91
2022/05/04 07:54:51;;;;;;;5.00;3.03;;;;;;;17.14;65.52;96196.34;5012965;28;20249;-91
2022/05/04 07:57:20;;;;;;;7.30;3.47;;;;;;;17.40;65.97;96193.31;5003699;28;20234;-91
2022/05/04 08:04:16;;;;;;;5.63;3.20;;;;;;;17.85;65.65;96197.00;5008087;28;20234;-91
2022/05/04 08:05:24;;;;;;;6.70;2.60;;;;;;;18.18;58.68;96192.75;4999713;28;20243;-91
2022/05/04 08:07:51;;;;;;;3.90;2.40;;;;;;;18.46;58.87;96191.19;5013371;28;20282;-85
2022/05/04 08:10:19;;;;;;;3.73;2.50;;;;;;;18.73;53.16;96188.81;5006719;28;20203;-85
2022/05/04 08:12:46;;;;;;;4.93;3.70;;;;;;;18.97;52.13;96188.91;5005891;28;20199;-85
2022/05/04 08:15:13;;;;;;;5.20;3.23;;;;;;;19.25;53.73;96190.00;4998130;28;20199;-85
2022/05/04 08:17:42;;;;;;;6.27;3.70;;;;;;;19.41;53.17;96187.94;5008069;28;20210;-85
2022/05/04 08:20:10;;;;;;;11.23;6.70;;;;;;;19.73;52.72;96190.09;5008710;28;20241;-85
2022/05/04 08:22:38;;;;;;;5.40;3.78;;;;;;;19.84;54.52;96186.91;5013205;28;20232;-85
2022/05/04 08:25:06;;;;;;;7.03;5.20;;;;;;;19.85;54.50;96182.25;4997890;28;20247;-84
2022/05/04 08:27:33;;;;;;;6.82;5.63;;;;;;;19.63;56.09;96183.63;4999070;28;20216;-85
2022/05/04 08:30:01;;;;;;;5.13;3.60;;;;;;;19.54;56.75;96176.34;5016625;28;20279;-85
2022/05/04 08:32:29;;;;;;;4.03;3.35;;;;;;;19.48;58.40;96177.50;4991707;28;20266;-83
2022/05/04 08:34:58;;;;;;;3.90;3.28;;;;;;;19.55;59.65;96177.97;4994761;28;20215;-85
2022/05/04 08:37:27;;;;;;;8.52;3.13;;;;;;;19.40;57.50;96180.81;5006056;28;20227;-84
2022/05/04 08:39:54;;;;;;;3.30;3.00;;;;;;;19.36;58.20;96175.13;5011584;28;20222;-83
2022/05/04 08:42:21;;;;;;;7.10;3.20;;;;;;;19.32;58.55;96167.75;5011221;28;20212;-83
2022/05/04 08:44:52;;;;;;;3.47;2.80;;;;;;;19.33;57.08;96170.22;5003856;28;20200;-83
2022/05/04 08:47:22;;;;;;;4.07;2.60;;;;;;;19.14;58.17;96175.59;5007190;28;20231;-84
2022/05/04 08:49:50;;;;;;;5.73;3.47;;;;;;;19.10;57.99;96171.00;5002994;28;20306;-84
2022/05/04 08:52:20;;;;;;;4.07;2.60;;;;;;;18.82;59.06;96165.22;5021417;28;20216;-83
2022/05/04 08:54:49;;;;;;;2.93;2.63;;;;;;;18.80;58.36;96175.63;5001463;28;20212;-84
2022/05/04 08:57:17;;;;;;;4.40;2.63;;;;;;;18.65;57.58;96174.94;5008555;28;20305;-84
2022/05/04 08:59:44;;;;;;;3.07;2.73;;;;;;;18.20;58.78;96167.88;5006204;28;20208;-84
2022/05/04 09:02:11;;;;;;;3.20;2.70;;;;;;;18.06;59.76;96176.69;4996865;28;20299;-84
2022/05/04 09:04:42;;;;;;;4.60;2.73;;;;;;;17.87;61.25;96170.22;5008604;28;20203;-84
2022/05/04 09:07:22;;;;;;;4.97;2.70;;;;;;;17.83;62.49;96174.63;4999073;28;20220;-84
2022/05/04 09:09:50;;;;;;;3.30;2.80;;;;;;;17.75;61.77;96167.00;5014135;28;20215;-84
2022/05/04 09:12:17;;;;;;;4.70;2.70;;;;;;;17.56;63.37;96165.94;4989471;28;20252;-83
2022/05/04 09:14:45;;;;;;;5.67;2.77;;;;;;;17.16;65.30;96162.25;4998933;28;20203;-83
2022/05/04 09:17:15;;;;;;;3.57;2.50;;;;;;;17.05;66.84;96166.09;4994336;28;20200;-83
2022/05/04 09:20:45;;;;;;;3.20;2.57;;;;;;;17.04;68.15;96172.63;4999010;28;20208;-83
2022/05/04 09:22:42;;;;;;;3.83;2.60;;;;;;;16.99;68.44;96172.66;5016560;28;20262;-85
2022/05/04 09:25:16;;;;;;;8.87;3.20;;;;;;;16.91;69.35;96168.56;5001558;28;20239;-84
2022/05/04 09:27:47;;;;;;;4.93;3.30;;;;;;;16.93;71.70;96168.28;4996483;28;20224;-84
2022/05/04 09:30:14;;;;;;;5.43;3.43;;;;;;;16.95;71.25;96166.91;4992146;28;20220;-84
2022/05/04 09:32:42;;;;;;;4.53;3.40;;;;;;;16.84;71.70;96168.00;4995867;28;20220;-84
2022/05/04 09:35:13;;;;;;;3.53;2.60;;;;;;;16.69;71.06;96168.03;5003625;28;20215;-83
2022/05/04 09:45:57;;;;;;;3.80;2.90;;;;;;;16.94;69.15;96178.91;5004363;28;20230;-89
2022/05/04 09:48:31;;;;;;;4.13;2.33;;;;;;;16.95;73.46;96175.09;5011568;28;20227;-91
2022/05/04 09:51:02;;;;;;;4.27;2.60;;;;;;;17.01;69.50;96182.19;5000150;28;20216;-89
2022/05/04 09:53:31;;;;;;;4.50;3.00;;;;;;;16.89;74.36;96178.13;5003828;28;20207;-91
2022/05/04 09:55:58;;;;;;;5.00;3.30;;;;;;;16.79;73.48;96173.47;4999322;28;20215;-89
2022/05/04 09:58:27;;;;;;;4.10;2.60;;;;;;;16.78;72.46;96174.56;5003471;28;20370;-88
2022/05/04 10:00:55;;;;;;;5.03;3.20;;;;;;;16.89;69.06;96170.75;5007763;28;20200;-86
2022/05/04 10:03:23;;;;;;;3.93;3.30;;;;;;;17.00;69.07;96171.56;5017356;28;20215;-89
2022/05/04 10:05:50;;;;;;;3.13;2.70;;;;;;;16.87;70.84;96164.75;5000376;28;20208;-88
2022/05/04 10:08:21;;;;;;;3.40;2.80;;;;;;;16.79;71.71;96164.50;5012383;28;20229;-91
2022/05/04 10:10:53;;;;;;;7.07;2.90;;;;;;;16.92;75.11;96162.03;5005596;28;20218;-86
2022/05/04 10:13:22;;;;;;;6.33;3.10;;;;;;;17.08;75.94;96149.19;4996802;28;20277;-90
2022/05/04 10:15:54;;;;;;;4.47;3.10;;;;;;;17.37;72.98;96163.81;5003344;28;20232;-89
2022/05/04 10:18:25;;;;;;;4.60;2.73;;;;;;;17.36;67.12;96159.47;5001393;28;20246;-91
2022/05/04 10:21:02;;;;;;;8.63;5.70;;;;;;;17.57;65.49;96151.22;5009516;28;20242;-89
2022/05/04 10:23:34;;;;;;;3.13;2.83;;;;;;;17.62;64.16;96152.03;5026515;28;20206;-89
2022/05/04 10:26:05;;;;;;;5.07;3.23;;;;;;;17.63;62.16;96152.84;4997318;28;20208;-91
2022/05/04 10:28:37;;;;;;;6.83;3.10;;;;;;;17.61;62.62;96142.16;5010456;28;20230;-87
2022/05/04 10:31:10;;;;;;;5.67;3.80;;;;;;;17.75;64.52;96137.78;5001232;28;20212;-87
2022/05/04 10:33:39;;;;;;;4.13;3.67;;;;;;;18.00;64.45;96125.91;5015579;28;20210;-91
2022/05/04 10:36:15;;;;;;;4.83;3.57;;;;;;;18.41;62.69;96142.03;5032274;28;20206;-91
2022/05/04 10:38:43;;;;;;;11.83;8.20;;;;;;;18.64;61.94;96141.31;5018242;28;20179;-90
2022/05/04 10:41:13;;;;;;;5.60;3.67;;;;;;;18.94;59.51;96139.41;5017569;28;20219;-88
2022/05/04 10:43:45;;;;;;;3.40;3.10;;;;;;;18.83;58.90;96139.50;5003543;28;20284;-91
2022/05/04 10:46:16;;;;;;;4.37;3.00;;;;;;;18.74;58.80;96134.94;5025474;28;20202;-89
2022/05/04 10:48:44;;;;;;;3.70;3.00;;;;;;;18.77;57.01;96129.72;5011143;28;20562;-90
2022/05/04 10:51:18;;;;;;;3.37;3.07;;;;;;;18.74;56.48;96124.00;5025229;28;20238;-86
2022/05/04 10:53:48;;;;;;;4.47;3.10;;;;;;;18.61;57.59;96119.22;5004215;28;20210;-86
2022/05/04 10:56:18;;;;;;;3.37;2.60;;;;;;;18.63;56.14;96120.53;4986761;28;20218;-85
2022/05/04 10:58:57;;;;;;;6.90;3.27;;;;;;;18.66;57.19;96116.41;4999182;28;20289;-83
2022/05/04 11:01:26;;;;;;;4.73;3.47;;;;;;;18.71;56.52;96114.47;5020330;28;20245;-86
2022/05/04 11:03:59;;;;;;;5.10;3.00;;;;;;;18.65;57.51;96112.88;5023817;28;20199;-85
2022/05/04 11:06:29;;;;;;;3.70;2.80;;;;;;;18.63;57.06;96106.06;5000834;28;20211;-85
2022/05/04 11:09:00;;;;;;;4.17;3.50;;;;;;;18.78;56.70;96109.47;5017247;28;20315;-83
2022/05/04 11:11:29;;;;;;;5.73;4.33;;;;;;;18.75;55.69;96099.09;5012356;28;20221;-85
2022/05/04 11:13:56;;;;;;;3.13;2.83;;;;;;;18.72;53.58;96096.94;5022177;28;20231;-87
2022/05/04 11:16:25;;;;;;;3.43;2.80;;;;;;;18.65;52.92;96098.38;5000086;28;20211;-87
2022/05/04 11:18:53;;;;;;;3.67;2.73;;;;;;;18.69;54.13;96100.25;5025705;28;20209;-86
2022/05/04 11:21:20;;;;;;;8.73;5.10;;;;;;;18.79;55.99;96097.44;5010331;28;20253;-83
2022/05/04 11:23:49;;;;;;;3.50;3.17;;;;;;;18.90;54.34;96106.34;5011204;28;20203;-84
2022/05/04 11:26:21;;;;;;;3.70;2.70;;;;;;;18.86;53.45;96100.66;5011816;28;20217;-84
2022/05/04 11:28:50;;;;;;;3.30;3.00;;;;;;;18.99;54.10;96092.84;5007996;28;20227;-83
2022/05/04 11:31:18;;;;;;;5.60;3.70;;;;;;;19.21;52.91;96102.19;5004815;28;20296;-87
2022/05/04 11:33:47;;;;;;;4.50;3.90;;;;;;;19.17;52.74;96106.59;4999601;28;20216;-83
2022/05/04 11:36:18;;;;;;;3.60;3.30;;;;;;;19.25;50.65;96102.41;5009378;28;20206;-88
2022/05/04 11:38:46;;;;;;;3.45;2.88;;;;;;;19.32;50.28;96097.41;5006639;28;20199;-87
2022/05/04 11:41:13;;;;;;;3.85;2.90;;;;;;;19.54;47.51;96097.72;5003920;28;20206;-87
2022/05/04 11:43:40;;;;;;;4.68;2.80;;;;;;;19.46;48.30;96098.34;5013002;28;20284;-88
2022/05/04 11:46:13;;;;;;;9.20;6.55;;;;;;;19.48;49.11;96101.63;5021166;28;20206;-86
2022/05/04 11:48:43;;;;;;;5.57;3.10;;;;;;;19.54;48.23;96105.13;5016515;28;20224;-84
2022/05/04 11:51:11;;;;;;;2.55;2.10;;;;;;;19.53;48.93;96106.22;5015998;28;20319;-86
2022/05/04 11:53:39;;;;;;;3.45;2.45;;;;;;;19.50;47.13;96101.31;4995867;28;20238;-87
2022/05/04 11:56:08;;;;;;;6.57;2.67;;;;;;;19.49;47.00;96118.84;4994263;28;20222;-85
2022/05/04 11:58:37;;;;;;;3.92;2.40;;;;;;;19.45;46.41;96106.84;5009315;28;20206;-87
2022/05/04 12:01:13;;;;;;;3.92;2.30;;;;;;;19.34;45.49;96117.09;5026054;28;20202;-88